sensor_id;sensor_type;location;lat;lon;timestamp;P1;durP1;ratioP1;P2;durP2;ratioP2
63316;SDS011;49822;41.468;13.560;2022-07-06T00:00:17;10.90;;;2.30;;
63316;SDS011;49822;41.468;13.560;2022-07-06T00:02:44;8.93;;;2.67;;
63316;SDS011;49822;41.468;13.560;2022-07-06T00:05:12;8.93;;;2.40;;
63316;SDS011;49822;41.468;13.560;2022-07-06T00:07:41;7.85;;;2.63;;
63316;SDS011;49822;41.468;13.560;2022-07-06T00:10:10;8.32;;;2.80;;
63316;SDS011;49822;41.468;13.560;2022-07-06T00:12:39;7.57;;;2.97;;
63316;SDS011;49822;41.468;13.560;2022-07-06T00:15:07;7.55;;;2.47;;
63316;SDS011;49822;41.468;13.560;2022-07-06T00:17:35;6.80;;;2.55;;
63316;SDS011;49822;41.468;13.560;2022-07-06T00:20:02;6.70;;;2.60;;
63316;SDS011;49822;41.468;13.560;2022-07-06T00:22:30;6.05;;;2.13;;
63316;SDS011;49822;41.468;13.560;2022-07-06T00:24:58;7.82;;;2.22;;
63316;SDS011;49822;41.468;13.560;2022-07-06T00:27:27;5.75;;;2.55;;
63316;SDS011;49822;41.468;13.560;2022-07-06T00:29:54;9.02;;;2.30;;
63316;SDS011;49822;41.468;13.560;2022-07-06T00:32:22;7.28;;;2.35;;
63316;SDS011;49822;41.468;13.560;2022-07-06T00:34:50;17.05;;;4.50;;
63316;SDS011;49822;41.468;13.560;2022-07-06T00:37:17;6.05;;;2.38;;
63316;SDS011;49822;41.468;13.560;2022-07-06T00:39:45;5.45;;;2.08;;
63316;SDS011;49822;41.468;13.560;2022-07-06T00:42:12;5.15;;;2.40;;
63316;SDS011;49822;41.468;13.560;2022-07-06T00:44:40;5.20;;;2.28;;
63316;SDS011;49822;41.468;13.560;2022-07-06T00:47:08;8.07;;;2.70;;
63316;SDS011;49822;41.468;13.560;2022-07-06T00:49:36;10.27;;;2.58;;
63316;SDS011;49822;41.468;13.560;2022-07-06T00:52:22;8.07;;;2.22;;
63316;SDS011;49822;41.468;13.560;2022-07-06T00:54:49;6.85;;;2.28;;
63316;SDS011;49822;41.468;13.560;2022-07-06T00:57:17;10.00;;;2.88;;
63316;SDS011;49822;41.468;13.560;2022-07-06T00:59:45;6.35;;;2.20;;
63316;SDS011;49822;41.468;13.560;2022-07-06T01:02:14;8.00;;;2.50;;
63316;SDS011;49822;41.468;13.560;2022-07-06T01:04:41;7.95;;;2.88;;
63316;SDS011;49822;41.468;13.560;2022-07-06T01:07:09;6.40;;;2.72;;
63316;SDS011;49822;41.468;13.560;2022-07-06T01:09:37;5.88;;;2.58;;
63316;SDS011;49822;41.468;13.560;2022-07-06T01:12:05;8.82;;;2.58;;
63316;SDS011;49822;41.468;13.560;2022-07-06T01:14:34;8.52;;;2.72;;
63316;SDS011;49822;41.468;13.560;2022-07-06T01:17:03;9.10;;;3.00;;
63316;SDS011;49822;41.468;13.560;2022-07-06T01:19:31;7.20;;;2.45;;
63316;SDS011;49822;41.468;13.560;2022-07-06T01:21:59;7.90;;;2.60;;
63316;SDS011;49822;41.468;13.560;2022-07-06T01:24:27;9.77;;;2.85;;
63316;SDS011;49822;41.468;13.560;2022-07-06T01:26:54;10.25;;;2.80;;
63316;SDS011;49822;41.468;13.560;2022-07-06T01:29:22;6.85;;;2.80;;
63316;SDS011;49822;41.468;13.560;2022-07-06T01:31:51;9.57;;;3.25;;
63316;SDS011;49822;41.468;13.560;2022-07-06T01:34:18;7.25;;;3.15;;
63316;SDS011;49822;41.468;13.560;2022-07-06T01:36:46;6.43;;;2.60;;
63316;SDS011;49822;41.468;13.560;2022-07-06T01:39:14;4.63;;;2.92;;
63316;SDS011;49822;41.468;13.560;2022-07-06T01:41:43;8.27;;;2.58;;
63316;SDS011;49822;41.468;13.560;2022-07-06T01:44:12;5.00;;;2.80;;
63316;SDS011;49822;41.468;13.560;2022-07-06T01:46:41;7.03;;;2.47;;
63316;SDS011;49822;41.468;13.560;2022-07-06T01:49:12;7.97;;;2.42;;
63316;SDS011;49822;41.468;13.560;2022-07-06T01:51:41;7.35;;;2.70;;
63316;SDS011;49822;41.468;13.560;2022-07-06T01:54:11;10.13;;;2.75;;
63316;SDS011;49822;41.468;13.560;2022-07-06T01:56:41;10.30;;;2.88;;
63316;SDS011;49822;41.468;13.560;2022-07-06T01:59:10;6.28;;;2.47;;
63316;SDS011;49822;41.468;13.560;2022-07-06T02:01:37;9.52;;;2.92;;
63316;SDS011;49822;41.468;13.560;2022-07-06T02:04:05;5.80;;;2.85;;
63316;SDS011;49822;41.468;13.560;2022-07-06T02:06:33;7.60;;;3.03;;
63316;SDS011;49822;41.468;13.560;2022-07-06T02:09:00;5.93;;;2.63;;
63316;SDS011;49822;41.468;13.560;2022-07-06T02:11:29;6.53;;;2.85;;
63316;SDS011;49822;41.468;13.560;2022-07-06T02:13:57;6.35;;;3.10;;
63316;SDS011;49822;41.468;13.560;2022-07-06T02:16:25;16.05;;;2.90;;
63316;SDS011;49822;41.468;13.560;2022-07-06T02:18:53;4.15;;;2.33;;
63316;SDS011;49822;41.468;13.560;2022-07-06T02:21:20;10.57;;;2.45;;
63316;SDS011;49822;41.468;13.560;2022-07-06T02:23:48;10.20;;;3.20;;
63316;SDS011;49822;41.468;13.560;2022-07-06T02:26:16;5.78;;;2.95;;
63316;SDS011;49822;41.468;13.560;2022-07-06T02:28:44;6.82;;;2.45;;
63316;SDS011;49822;41.468;13.560;2022-07-06T02:33:44;11.00;;;3.10;;
63316;SDS011;49822;41.468;13.560;2022-07-06T02:36:13;6.05;;;2.67;;
63316;SDS011;49822;41.468;13.560;2022-07-06T02:38:41;9.30;;;3.03;;
63316;SDS011;49822;41.468;13.560;2022-07-06T02:43:47;3.45;;;2.47;;
63316;SDS011;49822;41.468;13.560;2022-07-06T02:46:16;7.15;;;2.67;;
63316;SDS011;49822;41.468;13.560;2022-07-06T02:48:45;8.30;;;2.83;;
63316;SDS011;49822;41.468;13.560;2022-07-06T02:51:13;7.95;;;3.00;;
63316;SDS011;49822;41.468;13.560;2022-07-06T02:53:41;8.20;;;2.95;;
63316;SDS011;49822;41.468;13.560;2022-07-06T02:56:08;7.47;;;3.65;;
63316;SDS011;49822;41.468;13.560;2022-07-06T02:58:36;7.13;;;2.70;;
63316;SDS011;49822;41.468;13.560;2022-07-06T03:01:04;10.60;;;2.80;;
63316;SDS011;49822;41.468;13.560;2022-07-06T03:03:33;6.93;;;3.15;;
63316;SDS011;49822;41.468;13.560;2022-07-06T03:06:02;7.32;;;2.95;;
63316;SDS011;49822;41.468;13.560;2022-07-06T03:08:31;6.50;;;2.55;;
63316;SDS011;49822;41.468;13.560;2022-07-06T03:10:58;7.88;;;2.80;;
63316;SDS011;49822;41.468;13.560;2022-07-06T03:13:26;6.90;;;3.30;;
63316;SDS011;49822;41.468;13.560;2022-07-06T03:15:55;8.13;;;2.88;;
63316;SDS011;49822;41.468;13.560;2022-07-06T03:18:23;6.82;;;2.70;;
63316;SDS011;49822;41.468;13.560;2022-07-06T03:20:52;5.90;;;2.65;;
63316;SDS011;49822;41.468;13.560;2022-07-06T03:23:21;4.85;;;2.53;;
63316;SDS011;49822;41.468;13.560;2022-07-06T03:25:49;6.68;;;2.90;;
63316;SDS011;49822;41.468;13.560;2022-07-06T03:28:17;7.13;;;2.92;;
63316;SDS011;49822;41.468;13.560;2022-07-06T03:30:45;8.50;;;3.33;;
63316;SDS011;49822;41.468;13.560;2022-07-06T03:33:13;7.35;;;2.80;;
63316;SDS011;49822;41.468;13.560;2022-07-06T03:35:41;5.95;;;3.05;;
63316;SDS011;49822;41.468;13.560;2022-07-06T03:38:10;9.23;;;3.50;;
63316;SDS011;49822;41.468;13.560;2022-07-06T03:40:39;4.82;;;3.03;;
63316;SDS011;49822;41.468;13.560;2022-07-06T03:43:07;8.23;;;3.55;;
63316;SDS011;49822;41.468;13.560;2022-07-06T03:45:36;10.60;;;3.15;;
63316;SDS011;49822;41.468;13.560;2022-07-06T03:48:04;11.65;;;3.85;;
63316;SDS011;49822;41.468;13.560;2022-07-06T03:50:35;6.32;;;3.13;;
63316;SDS011;49822;41.468;13.560;2022-07-06T03:53:03;4.65;;;2.95;;
63316;SDS011;49822;41.468;13.560;2022-07-06T03:55:31;6.32;;;3.03;;
63316;SDS011;49822;41.468;13.560;2022-07-06T03:58:02;7.28;;;3.88;;
63316;SDS011;49822;41.468;13.560;2022-07-06T04:00:35;8.85;;;2.85;;
63316;SDS011;49822;41.468;13.560;2022-07-06T04:03:06;12.20;;;3.80;;
63316;SDS011;49822;41.468;13.560;2022-07-06T04:05:40;10.02;;;2.97;;
63316;SDS011;49822;41.468;13.560;2022-07-06T04:08:07;8.18;;;3.20;;
63316;SDS011;49822;41.468;13.560;2022-07-06T04:10:41;8.50;;;3.20;;
63316;SDS011;49822;41.468;13.560;2022-07-06T04:13:08;6.78;;;2.80;;
63316;SDS011;49822;41.468;13.560;2022-07-06T04:15:37;11.60;;;3.30;;
63316;SDS011;49822;41.468;13.560;2022-07-06T04:18:05;5.75;;;2.95;;
63316;SDS011;49822;41.468;13.560;2022-07-06T04:20:42;8.25;;;3.40;;
63316;SDS011;49822;41.468;13.560;2022-07-06T04:23:09;10.13;;;3.55;;
63316;SDS011;49822;41.468;13.560;2022-07-06T04:25:37;10.60;;;3.33;;
63316;SDS011;49822;41.468;13.560;2022-07-06T04:28:06;10.20;;;3.20;;
63316;SDS011;49822;41.468;13.560;2022-07-06T04:30:36;6.47;;;3.38;;
63316;SDS011;49822;41.468;13.560;2022-07-06T04:33:07;9.00;;;3.72;;
63316;SDS011;49822;41.468;13.560;2022-07-06T04:35:35;6.80;;;3.33;;
63316;SDS011;49822;41.468;13.560;2022-07-06T04:38:04;5.97;;;2.97;;
63316;SDS011;49822;41.468;13.560;2022-07-06T04:40:32;6.57;;;3.08;;
63316;SDS011;49822;41.468;13.560;2022-07-06T04:43:04;7.75;;;3.90;;
63316;SDS011;49822;41.468;13.560;2022-07-06T04:45:33;9.38;;;3.40;;
63316;SDS011;49822;41.468;13.560;2022-07-06T04:48:01;12.68;;;3.60;;
63316;SDS011;49822;41.468;13.560;2022-07-06T04:50:28;10.75;;;3.42;;
63316;SDS011;49822;41.468;13.560;2022-07-06T04:53:01;9.75;;;3.33;;
63316;SDS011;49822;41.468;13.560;2022-07-06T04:55:31;6.40;;;3.10;;
63316;SDS011;49822;41.468;13.560;2022-07-06T04:57:59;8.98;;;3.88;;
63316;SDS011;49822;41.468;13.560;2022-07-06T05:00:27;8.05;;;3.90;;
63316;SDS011;49822;41.468;13.560;2022-07-06T05:02:56;13.13;;;6.97;;
63316;SDS011;49822;41.468;13.560;2022-07-06T05:05:26;11.30;;;4.20;;
63316;SDS011;49822;41.468;13.560;2022-07-06T05:07:54;16.02;;;6.95;;
63316;SDS011;49822;41.468;13.560;2022-07-06T05:10:23;9.98;;;4.43;;
63316;SDS011;49822;41.468;13.560;2022-07-06T05:12:54;12.25;;;5.95;;
63316;SDS011;49822;41.468;13.560;2022-07-06T05:15:25;12.10;;;4.32;;
63316;SDS011;49822;41.468;13.560;2022-07-06T05:17:54;8.82;;;4.40;;
63316;SDS011;49822;41.468;13.560;2022-07-06T05:20:23;20.08;;;4.13;;
63316;SDS011;49822;41.468;13.560;2022-07-06T05:22:51;8.55;;;4.40;;
63316;SDS011;49822;41.468;13.560;2022-07-06T05:25:23;9.85;;;3.65;;
63316;SDS011;49822;41.468;13.560;2022-07-06T05:27:52;9.43;;;3.50;;
63316;SDS011;49822;41.468;13.560;2022-07-06T05:30:19;8.55;;;3.97;;
63316;SDS011;49822;41.468;13.560;2022-07-06T05:32:48;10.23;;;3.85;;
63316;SDS011;49822;41.468;13.560;2022-07-06T05:35:17;8.95;;;3.58;;
63316;SDS011;49822;41.468;13.560;2022-07-06T05:38:05;8.40;;;3.72;;
63316;SDS011;49822;41.468;13.560;2022-07-06T05:40:33;8.40;;;3.83;;
63316;SDS011;49822;41.468;13.560;2022-07-06T05:43:01;10.20;;;3.80;;
63316;SDS011;49822;41.468;13.560;2022-07-06T05:45:29;10.20;;;4.28;;
63316;SDS011;49822;41.468;13.560;2022-07-06T05:47:58;8.63;;;3.92;;
63316;SDS011;49822;41.468;13.560;2022-07-06T05:50:43;9.63;;;4.10;;
63316;SDS011;49822;41.468;13.560;2022-07-06T05:53:11;9.77;;;4.10;;
63316;SDS011;49822;41.468;13.560;2022-07-06T05:55:48;11.25;;;3.90;;
63316;SDS011;49822;41.468;13.560;2022-07-06T05:58:16;7.88;;;3.58;;
63316;SDS011;49822;41.468;13.560;2022-07-06T06:00:45;10.13;;;3.67;;
63316;SDS011;49822;41.468;13.560;2022-07-06T06:03:17;12.13;;;3.58;;
63316;SDS011;49822;41.468;13.560;2022-07-06T06:05:47;11.43;;;4.18;;
63316;SDS011;49822;41.468;13.560;2022-07-06T06:08:17;10.57;;;3.55;;
63316;SDS011;49822;41.468;13.560;2022-07-06T06:10:45;8.05;;;3.67;;
63316;SDS011;49822;41.468;13.560;2022-07-06T06:13:16;9.27;;;3.88;;
63316;SDS011;49822;41.468;13.560;2022-07-06T06:15:44;9.15;;;3.53;;
63316;SDS011;49822;41.468;13.560;2022-07-06T06:18:13;10.82;;;3.60;;
63316;SDS011;49822;41.468;13.560;2022-07-06T06:23:12;10.20;;;3.40;;
63316;SDS011;49822;41.468;13.560;2022-07-06T06:25:40;10.50;;;3.63;;
63316;SDS011;49822;41.468;13.560;2022-07-06T06:28:09;7.07;;;3.20;;
63316;SDS011;49822;41.468;13.560;2022-07-06T06:30:38;7.78;;;3.50;;
63316;SDS011;49822;41.468;13.560;2022-07-06T06:33:15;7.85;;;3.13;;
63316;SDS011;49822;41.468;13.560;2022-07-06T06:35:44;9.02;;;3.05;;
63316;SDS011;49822;41.468;13.560;2022-07-06T06:38:12;8.07;;;3.13;;
63316;SDS011;49822;41.468;13.560;2022-07-06T06:40:40;7.43;;;2.85;;
63316;SDS011;49822;41.468;13.560;2022-07-06T06:43:09;7.95;;;3.00;;
63316;SDS011;49822;41.468;13.560;2022-07-06T06:45:48;9.60;;;2.83;;
63316;SDS011;49822;41.468;13.560;2022-07-06T06:48:16;9.07;;;3.53;;
63316;SDS011;49822;41.468;13.560;2022-07-06T06:50:44;8.73;;;3.30;;
63316;SDS011;49822;41.468;13.560;2022-07-06T06:53:12;8.65;;;3.15;;
63316;SDS011;49822;41.468;13.560;2022-07-06T06:55:40;8.85;;;3.35;;
63316;SDS011;49822;41.468;13.560;2022-07-06T06:58:08;12.70;;;3.28;;
63316;SDS011;49822;41.468;13.560;2022-07-06T07:00:36;7.10;;;2.95;;
63316;SDS011;49822;41.468;13.560;2022-07-06T07:03:03;11.82;;;3.53;;
63316;SDS011;49822;41.468;13.560;2022-07-06T07:05:31;12.18;;;3.10;;
63316;SDS011;49822;41.468;13.560;2022-07-06T07:07:58;9.27;;;4.00;;
63316;SDS011;49822;41.468;13.560;2022-07-06T07:10:32;8.40;;;3.58;;
63316;SDS011;49822;41.468;13.560;2022-07-06T07:12:59;11.40;;;3.25;;
63316;SDS011;49822;41.468;13.560;2022-07-06T07:15:27;9.57;;;3.60;;
63316;SDS011;49822;41.468;13.560;2022-07-06T07:17:54;10.02;;;2.78;;
63316;SDS011;49822;41.468;13.560;2022-07-06T07:20:22;7.28;;;3.13;;
63316;SDS011;49822;41.468;13.560;2022-07-06T07:22:50;9.75;;;3.05;;
63316;SDS011;49822;41.468;13.560;2022-07-06T07:25:18;7.68;;;3.20;;
63316;SDS011;49822;41.468;13.560;2022-07-06T07:27:45;8.77;;;3.05;;
63316;SDS011;49822;41.468;13.560;2022-07-06T07:30:13;9.07;;;3.17;;
63316;SDS011;49822;41.468;13.560;2022-07-06T07:32:40;10.80;;;2.90;;
63316;SDS011;49822;41.468;13.560;2022-07-06T07:35:09;7.10;;;3.17;;
63316;SDS011;49822;41.468;13.560;2022-07-06T07:37:36;3.88;;;2.70;;
63316;SDS011;49822;41.468;13.560;2022-07-06T07:40:05;9.43;;;2.72;;
63316;SDS011;49822;41.468;13.560;2022-07-06T07:42:34;9.85;;;3.33;;
63316;SDS011;49822;41.468;13.560;2022-07-06T07:45:02;8.93;;;3.50;;
63316;SDS011;49822;41.468;13.560;2022-07-06T07:47:33;12.85;;;3.45;;
63316;SDS011;49822;41.468;13.560;2022-07-06T07:50:01;8.05;;;2.70;;
63316;SDS011;49822;41.468;13.560;2022-07-06T07:52:30;12.05;;;3.03;;
63316;SDS011;49822;41.468;13.560;2022-07-06T07:54:57;7.32;;;2.90;;
63316;SDS011;49822;41.468;13.560;2022-07-06T07:57:45;7.72;;;3.20;;
63316;SDS011;49822;41.468;13.560;2022-07-06T08:00:12;7.78;;;3.00;;
63316;SDS011;49822;41.468;13.560;2022-07-06T08:02:40;7.95;;;3.15;;
63316;SDS011;49822;41.468;13.560;2022-07-06T08:05:08;8.93;;;2.90;;
63316;SDS011;49822;41.468;13.560;2022-07-06T08:07:39;11.35;;;3.38;;
63316;SDS011;49822;41.468;13.560;2022-07-06T08:10:08;8.50;;;3.58;;
63316;SDS011;49822;41.468;13.560;2022-07-06T08:12:36;6.35;;;3.13;;
63316;SDS011;49822;41.468;13.560;2022-07-06T08:15:11;8.00;;;3.00;;
63316;SDS011;49822;41.468;13.560;2022-07-06T08:17:38;8.40;;;3.10;;
63316;SDS011;49822;41.468;13.560;2022-07-06T08:20:08;6.68;;;2.80;;
63316;SDS011;49822;41.468;13.560;2022-07-06T08:22:37;7.45;;;3.63;;
63316;SDS011;49822;41.468;13.560;2022-07-06T08:25:06;10.50;;;3.15;;
63316;SDS011;49822;41.468;13.560;2022-07-06T08:27:35;9.02;;;3.22;;
63316;SDS011;49822;41.468;13.560;2022-07-06T08:30:03;8.60;;;2.97;;
63316;SDS011;49822;41.468;13.560;2022-07-06T08:32:36;8.40;;;2.95;;
63316;SDS011;49822;41.468;13.560;2022-07-06T08:35:25;13.43;;;3.30;;
63316;SDS011;49822;41.468;13.560;2022-07-06T08:37:53;11.02;;;3.38;;
63316;SDS011;49822;41.468;13.560;2022-07-06T08:40:21;12.80;;;3.08;;
63316;SDS011;49822;41.468;13.560;2022-07-06T08:42:52;10.10;;;2.88;;
63316;SDS011;49822;41.468;13.560;2022-07-06T08:45:22;7.50;;;3.13;;
63316;SDS011;49822;41.468;13.560;2022-07-06T08:47:52;11.75;;;3.50;;
63316;SDS011;49822;41.468;13.560;2022-07-06T08:50:21;7.40;;;3.08;;
63316;SDS011;49822;41.468;13.560;2022-07-06T08:52:52;9.10;;;3.03;;
63316;SDS011;49822;41.468;13.560;2022-07-06T08:55:20;7.47;;;2.90;;
63316;SDS011;49822;41.468;13.560;2022-07-06T08:57:48;9.82;;;3.00;;
63316;SDS011;49822;41.468;13.560;2022-07-06T09:00:16;9.68;;;3.28;;
63316;SDS011;49822;41.468;13.560;2022-07-06T09:02:44;10.30;;;3.20;;
63316;SDS011;49822;41.468;13.560;2022-07-06T09:05:14;9.15;;;3.30;;
63316;SDS011;49822;41.468;13.560;2022-07-06T09:07:48;5.22;;;2.75;;
63316;SDS011;49822;41.468;13.560;2022-07-06T09:10:27;12.07;;;3.15;;
63316;SDS011;49822;41.468;13.560;2022-07-06T09:13:01;6.45;;;2.88;;
63316;SDS011;49822;41.468;13.560;2022-07-06T09:15:33;5.47;;;2.85;;
63316;SDS011;49822;41.468;13.560;2022-07-06T09:18:02;9.90;;;3.17;;
63316;SDS011;49822;41.468;13.560;2022-07-06T09:20:30;4.47;;;2.45;;
63316;SDS011;49822;41.468;13.560;2022-07-06T09:23:03;7.95;;;2.63;;
63316;SDS011;49822;41.468;13.560;2022-07-06T09:25:35;10.05;;;2.85;;
63316;SDS011;49822;41.468;13.560;2022-07-06T09:28:03;8.45;;;2.35;;
63316;SDS011;49822;41.468;13.560;2022-07-06T09:30:33;11.15;;;3.13;;
63316;SDS011;49822;41.468;13.560;2022-07-06T09:33:07;5.63;;;2.70;;
63316;SDS011;49822;41.468;13.560;2022-07-06T09:35:36;7.50;;;2.55;;
63316;SDS011;49822;41.468;13.560;2022-07-06T09:38:06;12.23;;;2.90;;
63316;SDS011;49822;41.468;13.560;2022-07-06T09:40:41;7.55;;;2.40;;
63316;SDS011;49822;41.468;13.560;2022-07-06T09:43:12;4.22;;;2.08;;
63316;SDS011;49822;41.468;13.560;2022-07-06T09:45:48;6.63;;;2.78;;
63316;SDS011;49822;41.468;13.560;2022-07-06T09:48:19;4.85;;;2.20;;
63316;SDS011;49822;41.468;13.560;2022-07-06T09:51:13;5.55;;;2.47;;
63316;SDS011;49822;41.468;13.560;2022-07-06T09:53:37;6.82;;;2.50;;
63316;SDS011;49822;41.468;13.560;2022-07-06T09:56:05;9.02;;;2.70;;
63316;SDS011;49822;41.468;13.560;2022-07-06T09:58:34;7.00;;;2.83;;
63316;SDS011;49822;41.468;13.560;2022-07-06T10:01:25;8.73;;;2.60;;
63316;SDS011;49822;41.468;13.560;2022-07-06T10:03:55;6.60;;;2.55;;
63316;SDS011;49822;41.468;13.560;2022-07-06T10:06:24;11.60;;;2.75;;
63316;SDS011;49822;41.468;13.560;2022-07-06T10:08:53;9.55;;;2.38;;
63316;SDS011;49822;41.468;13.560;2022-07-06T10:11:26;7.53;;;2.83;;
63316;SDS011;49822;41.468;13.560;2022-07-06T10:13:57;7.60;;;3.00;;
63316;SDS011;49822;41.468;13.560;2022-07-06T10:16:25;9.10;;;2.55;;
63316;SDS011;49822;41.468;13.560;2022-07-06T10:18:53;5.72;;;2.70;;
63316;SDS011;49822;41.468;13.560;2022-07-06T10:21:22;9.00;;;3.22;;
63316;SDS011;49822;41.468;13.560;2022-07-06T10:23:50;10.00;;;2.83;;
63316;SDS011;49822;41.468;13.560;2022-07-06T10:26:19;6.35;;;2.33;;
63316;SDS011;49822;41.468;13.560;2022-07-06T10:28:50;9.85;;;2.70;;
63316;SDS011;49822;41.468;13.560;2022-07-06T10:33:48;9.93;;;2.90;;
63316;SDS011;49822;41.468;13.560;2022-07-06T10:36:17;4.50;;;2.27;;
63316;SDS011;49822;41.468;13.560;2022-07-06T10:38:48;7.40;;;2.40;;
63316;SDS011;49822;41.468;13.560;2022-07-06T10:41:18;9.38;;;2.63;;
63316;SDS011;49822;41.468;13.560;2022-07-06T10:44:15;7.55;;;2.53;;
63316;SDS011;49822;41.468;13.560;2022-07-06T10:49:48;6.97;;;2.42;;
63316;SDS011;49822;41.468;13.560;2022-07-06T10:55:36;6.13;;;2.35;;
63316;SDS011;49822;41.468;13.560;2022-07-06T10:58:05;6.75;;;2.75;;
63316;SDS011;49822;41.468;13.560;2022-07-06T11:00:50;9.63;;;2.92;;
63316;SDS011;49822;41.468;13.560;2022-07-06T11:03:38;7.07;;;2.75;;
63316;SDS011;49822;41.468;13.560;2022-07-06T11:08:43;8.70;;;3.17;;
63316;SDS011;49822;41.468;13.560;2022-07-06T11:11:26;9.35;;;3.47;;
63316;SDS011;49822;41.468;13.560;2022-07-06T11:14:12;12.43;;;3.47;;
63316;SDS011;49822;41.468;13.560;2022-07-06T11:19:18;8.15;;;3.05;;
63316;SDS011;49822;41.468;13.560;2022-07-06T11:21:53;11.05;;;3.25;;
63316;SDS011;49822;41.468;13.560;2022-07-06T11:24:32;8.57;;;3.15;;
63316;SDS011;49822;41.468;13.560;2022-07-06T11:27:01;11.40;;;3.00;;
63316;SDS011;49822;41.468;13.560;2022-07-06T11:29:29;13.85;;;3.17;;
63316;SDS011;49822;41.468;13.560;2022-07-06T11:31:58;9.57;;;3.22;;
63316;SDS011;49822;41.468;13.560;2022-07-06T11:34:31;12.32;;;2.90;;
63316;SDS011;49822;41.468;13.560;2022-07-06T11:37:01;12.55;;;3.22;;
63316;SDS011;49822;41.468;13.560;2022-07-06T11:39:32;9.13;;;2.80;;
63316;SDS011;49822;41.468;13.560;2022-07-06T11:42:01;8.10;;;3.15;;
63316;SDS011;49822;41.468;13.560;2022-07-06T11:44:30;12.77;;;3.35;;
63316;SDS011;49822;41.468;13.560;2022-07-06T11:47:00;10.15;;;2.95;;
63316;SDS011;49822;41.468;13.560;2022-07-06T11:49:30;11.48;;;3.38;;
63316;SDS011;49822;41.468;13.560;2022-07-06T11:52:07;11.13;;;2.78;;
63316;SDS011;49822;41.468;13.560;2022-07-06T11:54:37;11.30;;;3.70;;
63316;SDS011;49822;41.468;13.560;2022-07-06T11:57:07;8.27;;;2.83;;
63316;SDS011;49822;41.468;13.560;2022-07-06T11:59:37;10.50;;;2.95;;
63316;SDS011;49822;41.468;13.560;2022-07-06T12:02:10;6.88;;;2.70;;
63316;SDS011;49822;41.468;13.560;2022-07-06T12:04:40;10.35;;;3.58;;
63316;SDS011;49822;41.468;13.560;2022-07-06T12:07:11;7.60;;;2.95;;
63316;SDS011;49822;41.468;13.560;2022-07-06T12:12:09;8.27;;;3.28;;
63316;SDS011;49822;41.468;13.560;2022-07-06T12:14:38;12.93;;;3.22;;
63316;SDS011;49822;41.468;13.560;2022-07-06T12:19:42;8.73;;;3.28;;
63316;SDS011;49822;41.468;13.560;2022-07-06T12:22:10;9.80;;;3.63;;
63316;SDS011;49822;41.468;13.560;2022-07-06T12:24:41;8.77;;;3.17;;
63316;SDS011;49822;41.468;13.560;2022-07-06T12:27:16;8.75;;;3.30;;
63316;SDS011;49822;41.468;13.560;2022-07-06T12:29:46;11.90;;;4.53;;
63316;SDS011;49822;41.468;13.560;2022-07-06T12:32:15;12.05;;;3.55;;
63316;SDS011;49822;41.468;13.560;2022-07-06T12:34:44;10.57;;;3.40;;
63316;SDS011;49822;41.468;13.560;2022-07-06T12:37:12;7.82;;;3.30;;
63316;SDS011;49822;41.468;13.560;2022-07-06T12:39:43;12.90;;;3.72;;
63316;SDS011;49822;41.468;13.560;2022-07-06T12:42:13;11.77;;;3.67;;
63316;SDS011;49822;41.468;13.560;2022-07-06T12:44:50;8.38;;;3.22;;
63316;SDS011;49822;41.468;13.560;2022-07-06T12:47:20;10.20;;;3.15;;
63316;SDS011;49822;41.468;13.560;2022-07-06T12:50:05;13.23;;;3.75;;
63316;SDS011;49822;41.468;13.560;2022-07-06T12:52:38;9.73;;;3.63;;
63316;SDS011;49822;41.468;13.560;2022-07-06T12:55:06;9.32;;;3.60;;
63316;SDS011;49822;41.468;13.560;2022-07-06T12:57:45;9.35;;;3.47;;
63316;SDS011;49822;41.468;13.560;2022-07-06T13:00:15;15.60;;;3.60;;
63316;SDS011;49822;41.468;13.560;2022-07-06T13:05:33;11.35;;;3.78;;
63316;SDS011;49822;41.468;13.560;2022-07-06T13:08:02;8.75;;;3.35;;
63316;SDS011;49822;41.468;13.560;2022-07-06T13:10:30;8.15;;;3.50;;
63316;SDS011;49822;41.468;13.560;2022-07-06T13:13:00;10.88;;;3.42;;
63316;SDS011;49822;41.468;13.560;2022-07-06T13:15:28;10.23;;;3.40;;
63316;SDS011;49822;41.468;13.560;2022-07-06T13:17:56;9.10;;;3.03;;
63316;SDS011;49822;41.468;13.560;2022-07-06T13:20:24;12.23;;;3.15;;
63316;SDS011;49822;41.468;13.560;2022-07-06T13:22:52;9.18;;;2.90;;
63316;SDS011;49822;41.468;13.560;2022-07-06T13:25:20;11.52;;;2.80;;
63316;SDS011;49822;41.468;13.560;2022-07-06T13:27:48;7.72;;;2.50;;
63316;SDS011;49822;41.468;13.560;2022-07-06T13:30:15;11.27;;;3.03;;
63316;SDS011;49822;41.468;13.560;2022-07-06T13:32:43;10.30;;;3.00;;
63316;SDS011;49822;41.468;13.560;2022-07-06T13:35:10;7.50;;;2.50;;
63316;SDS011;49822;41.468;13.560;2022-07-06T13:37:38;6.00;;;2.20;;
63316;SDS011;49822;41.468;13.560;2022-07-06T13:40:06;9.88;;;2.85;;
63316;SDS011;49822;41.468;13.560;2022-07-06T13:42:33;10.57;;;2.88;;
63316;SDS011;49822;41.468;13.560;2022-07-06T13:45:01;8.02;;;2.50;;
63316;SDS011;49822;41.468;13.560;2022-07-06T13:47:31;6.03;;;2.58;;
63316;SDS011;49822;41.468;13.560;2022-07-06T13:49:59;8.55;;;2.67;;
63316;SDS011;49822;41.468;13.560;2022-07-06T13:52:28;8.02;;;2.42;;
63316;SDS011;49822;41.468;13.560;2022-07-06T13:54:55;10.85;;;2.80;;
63316;SDS011;49822;41.468;13.560;2022-07-06T13:57:28;11.25;;;2.95;;
63316;SDS011;49822;41.468;13.560;2022-07-06T13:59:55;10.55;;;3.15;;
63316;SDS011;49822;41.468;13.560;2022-07-06T14:02:23;7.22;;;3.05;;
63316;SDS011;49822;41.468;13.560;2022-07-06T14:04:51;8.63;;;2.83;;
63316;SDS011;49822;41.468;13.560;2022-07-06T14:07:20;7.72;;;2.78;;
63316;SDS011;49822;41.468;13.560;2022-07-06T14:09:48;14.60;;;3.05;;
63316;SDS011;49822;41.468;13.560;2022-07-06T14:12:19;7.97;;;2.92;;
63316;SDS011;49822;41.468;13.560;2022-07-06T14:14:50;5.95;;;2.78;;
63316;SDS011;49822;41.468;13.560;2022-07-06T14:17:18;5.45;;;2.25;;
63316;SDS011;49822;41.468;13.560;2022-07-06T14:19:45;6.90;;;2.28;;
63316;SDS011;49822;41.468;13.560;2022-07-06T14:22:13;5.88;;;2.22;;
63316;SDS011;49822;41.468;13.560;2022-07-06T14:24:41;8.02;;;2.40;;
63316;SDS011;49822;41.468;13.560;2022-07-06T14:27:10;7.40;;;2.78;;
63316;SDS011;49822;41.468;13.560;2022-07-06T14:29:37;6.80;;;2.47;;
63316;SDS011;49822;41.468;13.560;2022-07-06T14:32:05;4.65;;;2.58;;
63316;SDS011;49822;41.468;13.560;2022-07-06T14:34:32;8.95;;;2.58;;
63316;SDS011;49822;41.468;13.560;2022-07-06T14:37:00;9.20;;;2.50;;
63316;SDS011;49822;41.468;13.560;2022-07-06T14:39:28;6.75;;;2.30;;
63316;SDS011;49822;41.468;13.560;2022-07-06T14:41:56;8.18;;;2.40;;
63316;SDS011;49822;41.468;13.560;2022-07-06T14:44:24;7.32;;;2.53;;
63316;SDS011;49822;41.468;13.560;2022-07-06T14:46:53;5.38;;;2.22;;
63316;SDS011;49822;41.468;13.560;2022-07-06T14:49:21;6.05;;;2.58;;
63316;SDS011;49822;41.468;13.560;2022-07-06T14:51:48;7.97;;;2.10;;
63316;SDS011;49822;41.468;13.560;2022-07-06T14:54:16;9.68;;;2.75;;
63316;SDS011;49822;41.468;13.560;2022-07-06T14:56:44;5.78;;;2.40;;
63316;SDS011;49822;41.468;13.560;2022-07-06T14:59:12;7.30;;;2.70;;
63316;SDS011;49822;41.468;13.560;2022-07-06T15:01:51;7.15;;;2.40;;
63316;SDS011;49822;41.468;13.560;2022-07-06T15:04:19;7.20;;;2.33;;
63316;SDS011;49822;41.468;13.560;2022-07-06T15:06:47;12.55;;;2.38;;
63316;SDS011;49822;41.468;13.560;2022-07-06T15:09:23;7.00;;;2.50;;
63316;SDS011;49822;41.468;13.560;2022-07-06T15:11:52;6.03;;;2.67;;
63316;SDS011;49822;41.468;13.560;2022-07-06T15:14:20;15.05;;;2.72;;